Time;durP1;ratioP1;P1;durP2;ratioP2;P2;SDS_P1;SDS_P2;PMS_P1;PMS_P2;Temp;Humidity;BMP_temperature;BMP_pressure;BME280_temperature;BME280_humidity;BME280_pressure;Samples;Min_cycle;Max_cycle;Signal;HPM_P1;HPM_P2
2021/12/09 00:01:02;;;;;;;0.40;0.40;;;4.80;99.90;;;;;;5073932;28;20439;-74
2021/12/09 00:03:32;;;;;;;0.50;0.50;;;4.80;99.90;;;;;;5073204;28;20417;-75
2021/12/09 00:05:58;;;;;;;0.70;0.70;;;4.80;99.90;;;;;;5091733;28;20491;-75
2021/12/09 00:08:26;;;;;;;0.40;0.30;;;4.80;99.90;;;;;;5091067;28;20427;-75
2021/12/09 00:10:53;;;;;;;0.40;0.20;;;4.90;99.90;;;;;;5092086;28;20379;-75
2021/12/09 00:13:21;;;;;;;0.40;0.20;;;4.80;99.90;;;;;;5072709;28;20454;-75
2021/12/09 00:15:47;;;;;;;0.40;0.30;;;4.90;99.90;;;;;;5091750;28;20414;-74
2021/12/09 00:18:13;;;;;;;0.40;0.28;;;4.80;99.90;;;;;;5091714;28;20389;-75
2021/12/09 00:20:39;;;;;;;0.70;0.70;;;5.00;99.90;;;;;;5072743;28;20519;-75
2021/12/09 00:23:05;;;;;;;0.47;0.40;;;4.90;99.90;;;;;;5091904;28;20382;-74
2021/12/09 00:25:30;;;;;;;4.90;1.60;;;5.00;99.90;;;;;;5072209;28;20475;-75
2021/12/09 00:27:56;;;;;;;0.50;0.50;;;4.90;99.90;;;;;;5105310;28;20699;-75
2021/12/09 00:30:22;;;;;;;0.40;0.30;;;4.90;99.90;;;;;;5111686;28;20381;-75
2021/12/09 00:32:48;;;;;;;0.40;0.30;;;4.90;99.90;;;;;;5083970;28;20829;-75
2021/12/09 00:35:16;;;;;;;0.40;0.20;;;4.80;99.90;;;;;;5106984;28;20456;-75
2021/12/09 00:38:02;;;;;;;0.40;0.30;;;4.80;99.90;;;;;;5109827;28;20384;-75
2021/12/09 00:40:28;;;;;;;0.40;0.30;;;4.80;99.90;;;;;;5111951;28;20368;-75
2021/12/09 00:42:54;;;;;;;0.40;0.20;;;4.80;99.90;;;;;;5111692;28;20384;-75
2021/12/09 00:45:21;;;;;;;0.70;0.70;;;4.80;99.90;;;;;;5111892;28;20372;-75
2021/12/09 00:47:47;;;;;;;0.40;0.20;;;4.90;99.90;;;;;;5111333;28;20454;-75
2021/12/09 00:50:13;;;;;;;0.40;0.20;;;4.70;99.90;;;;;;5111954;28;20464;-75
2021/12/09 00:52:39;;;;;;;0.40;0.30;;;4.80;99.90;;;;;;5111261;28;20392;-75
2021/12/09 00:55:07;;;;;;;1.00;0.80;;;4.70;99.90;;;;;;5111939;28;20380;-74
2021/12/09 00:57:34;;;;;;;0.40;0.32;;;4.70;99.90;;;;;;5111797;28;20388;-74
2021/12/09 01:00:00;;;;;;;0.40;0.30;;;4.80;99.90;;;;;;5076043;28;20439;-74
2021/12/09 01:02:26;;;;;;;0.40;0.30;;;4.80;99.90;;;;;;5111609;28;20463;-74
2021/12/09 01:04:52;;;;;;;0.40;0.30;;;4.80;99.90;;;;;;5111440;28;20436;-73
2021/12/09 01:07:18;;;;;;;0.40;0.30;;;4.90;99.90;;;;;;5111573;28;20719;-73
2021/12/09 01:09:44;;;;;;;0.40;0.20;;;4.80;99.90;;;;;;5111493;28;20712;-74
2021/12/09 01:12:10;;;;;;;0.40;0.30;;;4.80;99.90;;;;;;5110638;28;20369;-73
2021/12/09 01:14:37;;;;;;;0.40;0.20;;;4.80;99.90;;;;;;5111614;28;20368;-73
2021/12/09 01:17:05;;;;;;;0.40;0.30;;;4.80;99.90;;;;;;5110997;28;20432;-74
2021/12/09 01:19:31;;;;;;;0.40;0.20;;;4.80;99.90;;;;;;5111684;28;20433;-74
2021/12/09 01:21:56;;;;;;;0.40;0.40;;;4.80;99.90;;;;;;5110893;28;20372;-74
2021/12/09 01:24:22;;;;;;;0.40;0.20;;;4.70;99.90;;;;;;5093129;28;20389;-74
2021/12/09 01:26:49;;;;;;;0.40;0.20;;;4.80;99.90;;;;;;5111385;28;20446;-74
2021/12/09 01:29:19;;;;;;;0.80;0.60;;;4.80;99.90;;;;;;5110900;28;20381;-74
2021/12/09 01:31:53;;;;;;;0.40;0.20;;;4.80;99.90;;;;;;5111521;28;20368;-73
2021/12/09 01:34:21;;;;;;;0.40;0.30;;;4.70;99.90;;;;;;5110834;28;20514;-74
2021/12/09 01:36:49;;;;;;;0.40;0.40;;;4.70;99.90;;;;;;5111438;28;20415;-74
2021/12/09 01:39:15;;;;;;;0.40;0.20;;;4.80;99.90;;;;;;5110704;28;20417;-74
2021/12/09 01:41:41;;;;;;;0.40;0.30;;;4.70;99.90;;;;;;5093030;28;20384;-74
2021/12/09 01:44:07;;;;;;;0.40;0.20;;;4.60;99.90;;;;;;5093025;28;20385;-73
2021/12/09 01:46:33;;;;;;;0.40;0.20;;;4.60;99.90;;;;;;5110599;28;20510;-74
2021/12/09 01:48:58;;;;;;;0.40;0.30;;;4.50;99.90;;;;;;5111151;28;20376;-74
2021/12/09 01:51:25;;;;;;;1.20;0.80;;;4.50;99.90;;;;;;5110747;28;20395;-74
2021/12/09 01:53:52;;;;;;;0.40;0.20;;;4.70;99.90;;;;;;5114378;28;20383;-74
2021/12/09 01:56:29;;;;;;;0.40;0.20;;;4.60;99.90;;;;;;5114254;28;20392;-74
2021/12/09 01:58:59;;;;;;;0.40;0.20;;;4.50;99.90;;;;;;5115239;28;20384;-73
2021/12/09 02:01:26;;;;;;;0.40;0.20;;;4.60;99.90;;;;;;5114550;28;20377;-74
2021/12/09 02:03:52;;;;;;;0.40;0.30;;;4.50;99.90;;;;;;5115283;28;20471;-74
2021/12/09 02:06:19;;;;;;;0.40;0.30;;;4.50;99.90;;;;;;5115011;28;20400;-74
2021/12/09 02:08:46;;;;;;;0.40;0.30;;;4.50;99.90;;;;;;5114300;28;20368;-74
2021/12/09 02:11:11;;;;;;;0.40;0.30;;;4.60;99.90;;;;;;5096957;28;20444;-73
2021/12/09 02:13:37;;;;;;;0.40;0.30;;;4.60;99.90;;;;;;5114531;28;20368;-74
2021/12/09 02:16:03;;;;;;;0.40;0.30;;;4.50;99.90;;;;;;5114676;28;20376;-74
2021/12/09 02:18:29;;;;;;;0.40;0.20;;;4.60;99.90;;;;;;5096016;28;20384;-74
2021/12/09 02:21:10;;;;;;;0.40;0.20;;;4.70;99.90;;;;;;5114828;28;20463;-74
2021/12/09 02:23:37;;;;;;;0.40;0.20;;;4.50;99.90;;;;;;5114080;28;20381;-74
2021/12/09 02:26:03;;;;;;;0.40;0.30;;;4.50;99.90;;;;;;5114573;28;20433;-73
2021/12/09 02:28:29;;;;;;;0.40;0.20;;;4.60;99.90;;;;;;5096252;28;20439;-74
2021/12/09 02:30:55;;;;;;;0.40;0.30;;;4.60;99.90;;;;;;5114058;28;20418;-74
2021/12/09 02:33:21;;;;;;;0.40;0.20;;;4.70;99.90;;;;;;5105372;28;20709;-74
2021/12/09 02:35:47;;;;;;;0.40;0.30;;;4.80;99.90;;;;;;5093218;28;20378;-73
2021/12/09 02:38:13;;;;;;;0.40;0.20;;;4.90;99.90;;;;;;5094031;28;20419;-74
2021/12/09 02:40:38;;;;;;;0.40;0.30;;;4.90;99.90;;;;;;5093855;28;20378;-74
2021/12/09 02:43:08;;;;;;;0.40;0.30;;;4.90;99.90;;;;;;5093339;28;20381;-74
2021/12/09 02:45:34;;;;;;;0.40;0.30;;;5.00;99.90;;;;;;5093996;28;20496;-74
2021/12/09 02:48:00;;;;;;;0.40;0.40;;;5.00;99.90;;;;;;5093503;28;20392;-74
2021/12/09 02:50:26;;;;;;;0.40;0.30;;;4.70;99.90;;;;;;5093818;28;20386;-74
2021/12/09 02:52:51;;;;;;;0.40;0.30;;;4.80;99.90;;;;;;5093218;28;20378;-73
2021/12/09 02:55:17;;;;;;;0.40;0.40;;;4.80;99.90;;;;;;5094068;28;20394;-74
2021/12/09 02:57:43;;;;;;;0.40;0.30;;;4.70;99.90;;;;;;5093897;28;20448;-74
2021/12/09 03:00:11;;;;;;;0.40;0.20;;;4.50;99.90;;;;;;5093015;28;20732;-74
2021/12/09 03:02:37;;;;;;;0.40;0.20;;;4.60;99.90;;;;;;5093905;28;20378;-74
2021/12/09 03:05:04;;;;;;;0.40;0.30;;;4.60;99.90;;;;;;5092300;28;20843;-74
2021/12/09 03:07:35;;;;;;;0.40;0.20;;;4.60;99.90;;;;;;5093519;28;20421;-74
2021/12/09 03:10:24;;;;;;;0.40;0.20;;;4.70;99.90;;;;;;5093494;28;20947;-74
2021/12/09 03:12:57;;;;;;;0.40;0.30;;;4.70;99.90;;;;;;5075266;28;20747;-74
2021/12/09 03:15:24;;;;;;;0.50;0.40;;;4.80;99.90;;;;;;5092879;28;20389;-74
2021/12/09 03:17:50;;;;;;;0.80;0.50;;;4.60;99.90;;;;;;5093264;28;20742;-74
2021/12/09 03:20:18;;;;;;;1.50;0.80;;;4.60;99.90;;;;;;5092600;28;20478;-73
2021/12/09 03:22:45;;;;;;;0.40;0.20;;;4.60;99.90;;;;;;5093212;28;20453;-74
2021/12/09 03:25:13;;;;;;;0.40;0.20;;;4.60;99.90;;;;;;5074567;28;20756;-73
2021/12/09 03:27:39;;;;;;;0.40;0.30;;;4.70;99.90;;;;;;5074950;28;20405;-74
2021/12/09 03:30:08;;;;;;;0.40;0.20;;;4.60;99.90;;;;;;5093320;28;20508;-74
2021/12/09 03:32:34;;;;;;;0.40;0.20;;;4.60;99.90;;;;;;5077060;28;20736;-73
2021/12/09 03:35:00;;;;;;;0.40;0.28;;;4.50;99.90;;;;;;5095124;28;20391;-74
2021/12/09 03:37:29;;;;;;;0.40;0.20;;;4.50;99.90;;;;;;5112457;28;20816;-74
2021/12/09 03:39:56;;;;;;;0.40;0.30;;;4.50;99.90;;;;;;5113214;28;20373;-73
2021/12/09 03:42:25;;;;;;;0.40;0.30;;;4.50;99.90;;;;;;5113256;28;20409;-74
2021/12/09 03:44:51;;;;;;;3.60;0.50;;;4.50;99.90;;;;;;5113105;28;20376;-74
2021/12/09 03:47:23;;;;;;;0.40;0.30;;;4.50;99.90;;;;;;5094665;28;20403;-74
2021/12/09 03:49:50;;;;;;;0.40;0.20;;;4.50;99.90;;;;;;5112498;28;20691;-74
2021/12/09 03:52:16;;;;;;;0.40;0.40;;;4.50;99.90;;;;;;5094858;28;20389;-74
2021/12/09 03:54:43;;;;;;;0.40;0.20;;;4.50;99.90;;;;;;5112434;28;20915;-74
2021/12/09 03:57:10;;;;;;;0.40;0.30;;;4.50;99.90;;;;;;5112627;28;20836;-74
2021/12/09 03:59:36;;;;;;;0.40;0.30;;;4.40;99.90;;;;;;5112838;28;20429;-74
2021/12/09 04:02:03;;;;;;;0.40;0.30;;;4.50;99.90;;;;;;5112989;28;20468;-74
2021/12/09 04:04:29;;;;;;;0.40;0.28;;;4.50;99.90;;;;;;5094465;28;20388;-74
2021/12/09 04:06:55;;;;;;;0.40;0.40;;;4.60;99.90;;;;;;5111844;28;20957;-74
2021/12/09 04:09:22;;;;;;;0.40;0.40;;;4.50;99.90;;;;;;5112490;28;20774;-74
2021/12/09 04:11:49;;;;;;;0.40;0.30;;;4.60;99.90;;;;;;5112100;28;20377;-74
2021/12/09 04:14:15;;;;;;;1.00;0.90;;;4.40;99.90;;;;;;5112666;28;20464;-74
2021/12/09 04:16:42;;;;;;;0.40;0.30;;;4.40;99.90;;;;;;5111743;28;20380;-74
2021/12/09 04:19:09;;;;;;;0.40;0.30;;;4.50;99.90;;;;;;5111871;28;20380;-74
2021/12/09 04:21:36;;;;;;;0.40;0.20;;;4.60;99.90;;;;;;5112067;28;20388;-74
2021/12/09 04:24:07;;;;;;;0.40;0.20;;;4.60;99.90;;;;;;5111657;28;20511;-74
2021/12/09 04:26:34;;;;;;;0.40;0.30;;;4.60;99.90;;;;;;5112362;28;20866;-74
2021/12/09 04:29:00;;;;;;;0.70;0.70;;;4.60;99.90;;;;;;5111683;28;20373;-73
2021/12/09 04:31:27;;;;;;;0.40;0.20;;;4.60;99.90;;;;;;5112265;28;20456;-74
2021/12/09 04:33:52;;;;;;;0.40;0.20;;;4.60;99.90;;;;;;5112370;28;20383;-74
2021/12/09 04:36:21;;;;;;;0.40;0.20;;;4.50;99.90;;;;;;5111737;28;20376;-74
2021/12/09 04:38:48;;;;;;;0.40;0.30;;;4.50;99.90;;;;;;5094173;28;20471;-74
2021/12/09 04:41:15;;;;;;;0.40;0.20;;;4.30;99.90;;;;;;5111546;28;20885;-74
2021/12/09 04:43:42;;;;;;;0.40;0.20;;;4.40;99.90;;;;;;5112326;28;20372;-74
2021/12/09 04:46:12;;;;;;;0.40;0.20;;;4.40;99.90;;;;;;5111405;28;20532;-74
2021/12/09 04:48:38;;;;;;;0.50;0.30;;;4.50;99.90;;;;;;5112256;28;20459;-73
2021/12/09 04:51:04;;;;;;;0.40;0.20;;;4.30;99.90;;;;;;5111693;28;20858;-74
2021/12/09 04:53:32;;;;;;;0.40;0.20;;;4.50;99.90;;;;;;5111139;28;20372;-74
2021/12/09 04:55:58;;;;;;;0.40;0.20;;;4.50;99.90;;;;;;5111621;28;20399;-74
2021/12/09 04:58:25;;;;;;;0.40;0.20;;;4.50;99.90;;;;;;5111334;28;20380;-74
2021/12/09 05:00:54;;;;;;;0.40;0.20;;;4.40;99.90;;;;;;5111956;28;20804;-74
2021/12/09 05:03:20;;;;;;;0.40;0.30;;;4.30;99.90;;;;;;5093063;28;20385;-74
2021/12/09 05:05:49;;;;;;;0.40;0.30;;;4.10;99.90;;;;;;5111750;28;20536;-74
2021/12/09 05:08:16;;;;;;;0.40;0.30;;;4.10;99.90;;;;;;5111830;28;20488;-74
2021/12/09 05:11:07;;;;;;;0.40;0.30;;;4.20;99.90;;;;;;5111078;28;21228;-74
2021/12/09 05:13:37;;;;;;;0.40;0.30;;;4.10;99.90;;;;;;5111278;28;20373;-73
2021/12/09 05:16:04;;;;;;;0.40;0.20;;;4.10;99.90;;;;;;5093450;28;20418;-75
2021/12/09 05:18:32;;;;;;;0.40;0.30;;;4.10;99.90;;;;;;5111138;28;20433;-75
2021/12/09 05:20:59;;;;;;;0.40;0.20;;;4.10;99.90;;;;;;5093387;28;20880;-76
2021/12/09 05:23:25;;;;;;;0.40;0.30;;;4.30;99.90;;;;;;5111617;28;20368;-75
2021/12/09 05:25:52;;;;;;;0.40;0.20;;;4.30;99.90;;;;;;5110348;28;20412;-75
2021/12/09 05:28:19;;;;;;;0.40;0.30;;;4.30;99.90;;;;;;5111367;28;20387;-75
2021/12/09 05:33:34;;;;;;;0.40;0.30;;;4.20;99.90;;;;;;5059418;28;20378;-75
2021/12/09 05:36:00;;;;;;;0.60;0.60;;;4.20;99.90;;;;;;5090178;28;20867;-75
2021/12/09 05:38:26;;;;;;;0.40;0.20;;;4.10;99.90;;;;;;5073092;28;20386;-75
2021/12/09 05:40:52;;;;;;;0.40;0.30;;;4.10;99.90;;;;;;5090606;28;20366;-76
2021/12/09 05:43:19;;;;;;;0.40;0.30;;;4.10;99.90;;;;;;5091067;28;20378;-75
2021/12/09 05:45:46;;;;;;;0.40;0.30;;;4.20;99.90;;;;;;5091489;28;20413;-75
2021/12/09 05:48:13;;;;;;;0.40;0.22;;;4.20;99.90;;;;;;5073504;28;20386;-76
2021/12/09 05:50:39;;;;;;;0.40;0.30;;;4.10;99.90;;;;;;5091495;28;20778;-75
2021/12/09 05:53:06;;;;;;;0.60;0.60;;;4.10;99.90;;;;;;5090842;28;20386;-75
2021/12/09 05:55:32;;;;;;;0.57;0.57;;;4.20;99.90;;;;;;5093846;28;20399;-75
2021/12/09 05:57:58;;;;;;;0.40;0.20;;;4.20;99.90;;;;;;5120135;28;20386;-75
2021/12/09 06:00:24;;;;;;;0.40;0.30;;;4.00;99.90;;;;;;5131399;28;20377;-75
2021/12/09 06:02:50;;;;;;;0.40;0.30;;;4.00;99.90;;;;;;5131679;28;20375;-75
2021/12/09 06:05:16;;;;;;;0.40;0.20;;;4.00;99.90;;;;;;5128984;28;20379;-75
2021/12/09 06:07:42;;;;;;;0.40;0.20;;;4.00;99.90;;;;;;5130678;28;20382;-75
2021/12/09 06:10:11;;;;;;;0.40;0.40;;;3.90;99.90;;;;;;5130543;28;20378;-75
2021/12/09 06:12:37;;;;;;;0.40;0.30;;;4.00;99.90;;;;;;5112643;28;20478;-75
2021/12/09 06:15:04;;;;;;;0.40;0.20;;;4.00;99.90;;;;;;5112586;28;20432;-74
2021/12/09 06:17:30;;;;;;;0.40;0.20;;;4.00;99.90;;;;;;5130497;28;20383;-75
2021/12/09 06:19:56;;;;;;;0.40;0.30;;;4.00;99.90;;;;;;5130865;28;20407;-76
2021/12/09 06:22:22;;;;;;;0.40;0.20;;;4.20;99.90;;;;;;5130279;28;20417;-75
2021/12/09 06:24:47;;;;;;;0.40;0.20;;;4.10;99.90;;;;;;5130524;28;20413;-74
2021/12/09 06:27:13;;;;;;;0.40;0.30;;;4.20;99.90;;;;;;5130582;28;20880;-75
2021/12/09 06:29:40;;;;;;;0.40;0.20;;;4.20;99.90;;;;;;5130159;28;20379;-75
2021/12/09 06:32:06;;;;;;;2.70;0.70;;;4.30;99.90;;;;;;5069430;28;20398;-75
2021/12/09 06:34:33;;;;;;;0.40;0.20;;;4.30;99.90;;;;;;5106533;28;20412;-75
2021/12/09 06:36:59;;;;;;;0.40;0.30;;;4.30;99.90;;;;;;5090039;28;20383;-73
2021/12/09 06:39:25;;;;;;;0.40;0.20;;;4.30;99.90;;;;;;5090023;28;20693;-74
2021/12/09 06:41:51;;;;;;;0.47;0.38;;;4.20;99.90;;;;;;5093920;28;20382;-74
2021/12/09 06:44:16;;;;;;;0.40;0.40;;;4.20;99.90;;;;;;5075521;28;20413;-72
2021/12/09 06:46:42;;;;;;;0.80;0.80;;;4.20;99.90;;;;;;5092840;28;20405;-72
2021/12/09 06:49:08;;;;;;;0.40;0.23;;;4.10;99.90;;;;;;5094083;28;20375;-72
2021/12/09 06:51:34;;;;;;;0.40;0.30;;;4.10;99.90;;;;;;5093307;28;20375;-73
2021/12/09 06:54:00;;;;;;;0.40;0.20;;;4.10;99.90;;;;;;5093863;28;20724;-72
2021/12/09 06:56:33;;;;;;;0.40;0.30;;;4.10;99.90;;;;;;5094047;28;20388;-72
2021/12/09 06:59:01;;;;;;;0.40;0.20;;;4.20;99.90;;;;;;5093967;28;20384;-73
2021/12/09 07:01:27;;;;;;;0.40;0.30;;;4.30;99.90;;;;;;5093821;28;20465;-72
2021/12/09 07:03:53;;;;;;;0.70;0.70;;;4.30;99.90;;;;;;5092773;28;20386;-72
2021/12/09 07:06:20;;;;;;;0.40;0.30;;;4.20;99.90;;;;;;5093235;28;20421;-72
2021/12/09 07:08:48;;;;;;;0.40;0.40;;;4.30;99.90;;;;;;5093356;28;20369;-72
2021/12/09 07:11:19;;;;;;;0.40;0.30;;;4.90;99.90;;;;;;5075227;28;20397;-72
2021/12/09 07:13:47;;;;;;;0.40;0.20;;;4.20;99.90;;;;;;5093016;28;20378;-72
2021/12/09 07:16:13;;;;;;;0.40;0.20;;;4.30;99.90;;;;;;5075508;28;20394;-72
2021/12/09 07:18:39;;;;;;;0.40;0.30;;;4.40;99.90;;;;;;5093453;28;20457;-72
2021/12/09 07:21:06;;;;;;;0.40;0.35;;;4.40;99.90;;;;;;5092415;28;20871;-72
2021/12/09 07:23:33;;;;;;;0.40;0.20;;;4.40;99.90;;;;;;5075126;28;20390;-73
2021/12/09 07:25:59;;;;;;;0.40;0.20;;;4.40;99.90;;;;;;5092406;28;20440;-73
2021/12/09 07:28:24;;;;;;;0.40;0.30;;;4.40;99.90;;;;;;5092868;28;20856;-73
2021/12/09 07:30:50;;;;;;;0.40;0.30;;;4.20;99.90;;;;;;5092955;28;20391;-73
2021/12/09 07:33:16;;;;;;;0.40;0.30;;;4.20;99.90;;;;;;5100822;28;20790;-73
2021/12/09 07:35:43;;;;;;;0.40;0.20;;;4.30;99.90;;;;;;5113251;28;20486;-72
2021/12/09 07:38:10;;;;;;;0.40;0.20;;;4.50;99.90;;;;;;5112473;28;20730;-73
2021/12/09 07:40:36;;;;;;;0.45;0.43;;;4.50;99.90;;;;;;5113390;28;20372;-73
2021/12/09 07:43:03;;;;;;;0.70;0.70;;;4.50;99.90;;;;;;5077431;28;20412;-73
2021/12/09 07:45:29;;;;;;;0.40;0.20;;;4.60;99.90;;;;;;5112838;28;20468;-73
2021/12/09 07:47:55;;;;;;;0.40;0.30;;;4.50;99.90;;;;;;5112835;28;20519;-73
2021/12/09 07:50:24;;;;;;;1.60;0.60;;;4.50;99.90;;;;;;5112334;28;20389;-73
2021/12/09 07:52:51;;;;;;;0.40;0.20;;;4.60;99.90;;;;;;5113042;28;20395;-72
2021/12/09 07:55:18;;;;;;;0.40;0.25;;;4.70;99.90;;;;;;5112588;28;20388;-72
2021/12/09 07:57:45;;;;;;;0.40;0.40;;;4.70;99.90;;;;;;5094585;28;20513;-73
2021/12/09 08:00:15;;;;;;;0.40;0.20;;;4.50;99.90;;;;;;5112932;28;20381;-73
2021/12/09 08:02:42;;;;;;;0.40;0.20;;;4.50;99.90;;;;;;5094647;28;20472;-73
2021/12/09 08:05:10;;;;;;;0.40;0.20;;;4.60;99.90;;;;;;5112944;28;20391;-73
2021/12/09 08:07:36;;;;;;;0.40;0.30;;;4.60;99.90;;;;;;5112024;28;20442;-73
2021/12/09 08:10:02;;;;;;;0.40;0.20;;;4.60;99.90;;;;;;5112665;28;20433;-72
2021/12/09 08:12:28;;;;;;;0.40;0.20;;;4.60;99.90;;;;;;5111730;28;20413;-73
2021/12/09 08:14:54;;;;;;;0.40;0.30;;;4.60;99.90;;;;;;5112960;28;20455;-73
2021/12/09 08:17:44;;;;;;;0.40;0.30;;;4.70;99.90;;;;;;5112187;28;20420;-73
2021/12/09 08:20:13;;;;;;;0.40;0.30;;;4.80;99.90;;;;;;5112298;28;20427;-73
2021/12/09 08:22:40;;;;;;;1.10;0.60;;;4.80;99.90;;;;;;5111657;28;20464;-73
2021/12/09 08:25:07;;;;;;;0.40;0.30;;;4.80;99.90;;;;;;5111719;28;20407;-73
2021/12/09 08:27:35;;;;;;;0.40;0.30;;;4.80;99.90;;;;;;5093416;28;20742;-73
2021/12/09 08:30:02;;;;;;;0.40;0.30;;;4.80;99.90;;;;;;5112636;28;20372;-73
2021/12/09 08:32:28;;;;;;;0.40;0.30;;;4.90;99.90;;;;;;5110570;28;20462;-73
2021/12/09 08:34:54;;;;;;;0.40;0.30;;;4.80;99.90;;;;;;5091672;28;20656;-73
2021/12/09 08:37:21;;;;;;;0.40;0.30;;;4.80;99.90;;;;;;5073787;28;20390;-73
2021/12/09 08:39:47;;;;;;;0.40;0.30;;;4.80;99.90;;;;;;5091063;28;20389;-72
2021/12/09 08:42:14;;;;;;;0.40;0.20;;;4.60;99.90;;;;;;5091834;28;20374;-73
2021/12/09 08:44:40;;;;;;;0.40;0.30;;;4.60;99.90;;;;;;5091589;28;20378;-73
2021/12/09 08:47:07;;;;;;;0.40;0.30;;;4.70;99.90;;;;;;5091604;28;20434;-73
2021/12/09 08:49:33;;;;;;;0.40;0.20;;;4.70;99.90;;;;;;5091442;28;20386;-73
2021/12/09 08:51:59;;;;;;;0.40;0.30;;;4.80;99.90;;;;;;5091064;28;20390;-73
2021/12/09 08:54:25;;;;;;;0.40;0.30;;;4.80;99.90;;;;;;5091527;28;20863;-73
2021/12/09 08:56:51;;;;;;;0.40;0.30;;;4.70;99.90;;;;;;5072851;28;20451;-73
2021/12/09 08:59:19;;;;;;;0.60;0.60;;;4.80;99.90;;;;;;5091594;28;20382;-72
2021/12/09 09:01:46;;;;;;;0.40;0.27;;;4.90;99.90;;;;;;5091139;28;20374;-72
2021/12/09 09:04:12;;;;;;;0.40;0.30;;;5.00;99.90;;;;;;5072617;28;20896;-72
2021/12/09 09:06:49;;;;;;;0.40;0.20;;;5.00;99.90;;;;;;5073195;28;20482;-72
2021/12/09 09:09:15;;;;;;;0.40;0.20;;;5.10;99.90;;;;;;5090700;28;20462;-73
2021/12/09 09:11:41;;;;;;;0.40;0.30;;;5.10;99.90;;;;;;5091453;28;20532;-73
2021/12/09 09:14:07;;;;;;;0.40;0.30;;;5.10;99.90;;;;;;5056043;28;20485;-74
2021/12/09 09:16:33;;;;;;;0.40;0.30;;;5.20;99.90;;;;;;5091064;28;20469;-73
2021/12/09 09:18:59;;;;;;;0.40;0.20;;;5.50;99.90;;;;;;5091302;28;20378;-73
2021/12/09 09:21:25;;;;;;;0.40;0.20;;;5.20;99.90;;;;;;5090695;28;20374;-73
2021/12/09 09:23:51;;;;;;;0.40;0.20;;;5.10;99.90;;;;;;5091074;28;20481;-73
2021/12/09 09:26:17;;;;;;;0.40;0.20;;;5.10;99.90;;;;;;5071810;28;20490;-73
2021/12/09 09:28:43;;;;;;;0.40;0.20;;;5.10;99.90;;;;;;5091147;28;20374;-73
2021/12/09 09:31:09;;;;;;;0.40;0.30;;;5.00;99.90;;;;;;5091226;28;20402;-73
2021/12/09 09:33:35;;;;;;;0.40;0.20;;;5.00;99.90;;;;;;5083695;28;20407;-72
2021/12/09 09:36:01;;;;;;;0.40;0.30;;;5.00;99.90;;;;;;5111610;28;20471;-73
2021/12/09 09:38:27;;;;;;;0.40;0.20;;;5.10;99.90;;;;;;5110803;28;20680;-73
2021/12/09 09:41:04;;;;;;;0.40;0.20;;;5.10;99.90;;;;;;5111254;28;20448;-73
2021/12/09 09:46:16;;;;;;;0.40;0.30;;;5.20;99.90;;;;;;5111462;28;20449;-73
2021/12/09 09:48:44;;;;;;;0.40;0.20;;;5.20;99.90;;;;;;5110759;28;20377;-73
2021/12/09 09:51:10;;;;;;;0.40;0.30;;;5.20;99.90;;;;;;5111331;28;20376;-72
2021/12/09 09:53:38;;;;;;;0.40;0.20;;;5.10;99.90;;;;;;5110713;28;20376;-73
2021/12/09 09:56:13;;;;;;;0.40;0.25;;;5.20;99.90;;;;;;5110924;28;20561;-74
2021/12/09 09:58:46;;;;;;;0.40;0.30;;;5.30;99.90;;;;;;5110586;28;20400;-73
2021/12/09 10:01:12;;;;;;;0.40;0.20;;;5.20;99.90;;;;;;5092789;28;20388;-73
2021/12/09 10:03:42;;;;;;;0.40;0.30;;;5.10;99.90;;;;;;5110850;28;20368;-73
2021/12/09 10:06:09;;;;;;;0.40;0.40;;;5.20;99.90;;;;;;5111254;28;20473;-73
2021/12/09 10:08:35;;;;;;;0.40;0.20;;;5.20;99.90;;;;;;5110743;28;20377;-73
2021/12/09 10:11:02;;;;;;;0.40;0.30;;;5.30;99.90;;;;;;5110841;28;20430;-73
2021/12/09 10:13:35;;;;;;;0.40;0.20;;;5.30;99.90;;;;;;5093013;28;20396;-73
2021/12/09 10:16:05;;;;;;;0.90;0.70;;;5.30;99.90;;;;;;5113824;28;20415;-73
2021/12/09 10:18:33;;;;;;;0.40;0.40;;;5.40;99.90;;;;;;5114951;28;20384;-73
2021/12/09 10:20:59;;;;;;;0.40;0.30;;;5.40;99.90;;;;;;5114388;28;20387;-73
2021/12/09 10:23:33;;;;;;;0.50;0.50;;;5.40;99.90;;;;;;5114824;28;20742;-73
2021/12/09 10:26:19;;;;;;;0.40;0.20;;;5.20;99.90;;;;;;5114113;28;20431;-72
2021/12/09 10:28:51;;;;;;;0.40;0.30;;;5.20;99.90;;;;;;5114740;28;20395;-73
2021/12/09 10:31:21;;;;;;;0.50;0.45;;;5.40;99.90;;;;;;5115011;28;20372;-73
2021/12/09 10:33:59;;;;;;;0.40;0.30;;;5.40;99.90;;;;;;5114688;28;20376;-73
2021/12/09 10:36:45;;;;;;;0.40;0.30;;;5.40;99.90;;;;;;5114950;28;20380;-73
2021/12/09 10:39:26;;;;;;;0.40;0.30;;;5.20;99.90;;;;;;5114227;28;20421;-72
2021/12/09 10:41:55;;;;;;;0.40;0.20;;;5.20;99.90;;;;;;5096295;28;20475;-72
2021/12/09 10:44:59;;;;;;;0.40;0.30;;;5.30;99.90;;;;;;5114341;28;20416;-73
2021/12/09 10:47:51;;;;;;;0.90;0.60;;;5.30;99.90;;;;;;5102201;28;20430;-73
2021/12/09 10:51:08;;;;;;;0.40;0.20;;;5.30;99.90;;;;;;5095189;28;20393;-73
2021/12/09 10:53:47;;;;;;;0.40;0.20;;;5.40;99.90;;;;;;5114192;28;20483;-73
2021/12/09 10:56:23;;;;;;;0.40;0.20;;;5.30;99.90;;;;;;5113989;28;20419;-73
2021/12/09 10:58:50;;;;;;;0.40;0.20;;;5.30;99.90;;;;;;5114305;28;20391;-73
2021/12/09 11:01:19;;;;;;;0.40;0.20;;;5.30;99.90;;;;;;5113681;28;20398;-73
2021/12/09 11:03:55;;;;;;;0.40;0.20;;;5.20;99.90;;;;;;5114089;28;20377;-72
2021/12/09 11:06:29;;;;;;;0.70;0.70;;;5.10;99.90;;;;;;5113576;28;20437;-73
2021/12/09 11:08:57;;;;;;;0.40;0.30;;;5.10;99.90;;;;;;5095888;28;20381;-72
2021/12/09 11:11:32;;;;;;;0.40;0.20;;;5.10;99.90;;;;;;5113419;28;20368;-73
2021/12/09 11:14:12;;;;;;;0.40;0.20;;;5.20;99.90;;;;;;5114131;28;20372;-72
2021/12/09 11:16:49;;;;;;;0.40;0.30;;;5.10;99.90;;;;;;5094830;28;20427;-73
2021/12/09 11:19:36;;;;;;;0.40;0.20;;;5.20;99.90;;;;;;5113786;28;20468;-74
2021/12/09 11:22:08;;;;;;;0.40;0.30;;;5.60;99.90;;;;;;5095474;28;20467;-73
2021/12/09 11:24:43;;;;;;;0.80;0.80;;;5.90;99.90;;;;;;5112682;28;20392;-74
2021/12/09 11:27:15;;;;;;;0.40;0.30;;;6.30;99.90;;;;;;5113557;28;20439;-73
2021/12/09 11:29:52;;;;;;;0.40;0.20;;;6.80;99.90;;;;;;5113109;28;20373;-73
2021/12/09 11:32:31;;;;;;;0.40;0.20;;;7.50;99.90;;;;;;5094838;28;20420;-74
2021/12/09 11:35:15;;;;;;;0.40;0.30;;;7.20;99.90;;;;;;5075052;28;20386;-74
2021/12/09 11:37:50;;;;;;;0.40;0.30;;;7.20;99.90;;;;;;5092636;28;20414;-73
2021/12/09 11:40:47;;;;;;;0.40;0.30;;;7.00;99.90;;;;;;5093227;28;20416;-73
2021/12/09 11:43:24;;;;;;;0.40;0.30;;;7.10;99.90;;;;;;5093025;28;20466;-74
2021/12/09 11:45:51;;;;;;;0.40;0.30;;;7.70;99.90;;;;;;5092161;28;20442;-74
2021/12/09 11:48:17;;;;;;;0.40;0.30;;;7.60;99.90;;;;;;5092925;28;20414;-74
2021/12/09 11:50:48;;;;;;;0.40;0.30;;;7.60;99.90;;;;;;5073950;28;20697;-74
2021/12/09 11:53:17;;;;;;;0.40;0.20;;;8.20;99.90;;;;;;5092935;28;20461;-73
2021/12/09 11:55:50;;;;;;;0.40;0.30;;;8.80;99.40;;;;;;5091663;28;20444;-74
2021/12/09 12:12:58;;;;;;;0.40;0.30;;;8.10;96.70;;;;;;5092601;28;20385;-72
2021/12/09 12:21:38;;;;;;;0.90;0.80;;;8.50;95.90;;;;;;5091583;28;20452;-72
2021/12/09 12:24:59;;;;;;;0.40;0.30;;;7.60;98.50;;;;;;5091306;28;20479;-73
2021/12/09 12:27:55;;;;;;;0.40;0.30;;;7.00;99.90;;;;;;5088803;28;20433;-73
2021/12/09 12:33:18;;;;;;;0.40;0.30;;;6.30;99.90;;;;;;5096364;28;20381;-73
2021/12/09 12:36:52;;;;;;;0.40;0.23;;;6.30;99.90;;;;;;5093465;28;20396;-72
2021/12/09 12:38:50;;;;;;;0.40;0.20;;;6.30;99.90;;;;;;5093793;28;20400;-72
2021/12/09 12:41:17;;;;;;;0.40;0.20;;;6.30;99.90;;;;;;5101922;28;20423;-73
2021/12/09 12:43:53;;;;;;;0.40;0.20;;;6.00;99.90;;;;;;5091276;28;20377;-72
2021/12/09 12:46:50;;;;;;;0.40;0.30;;;6.00;99.90;;;;;;5090496;28;20764;-73
2021/12/09 12:51:59;;;;;;;0.40;0.20;;;6.00;99.90;;;;;;5091294;28;20425;-72
2021/12/09 12:57:36;;;;;;;0.40;0.30;;;5.80;99.90;;;;;;5110786;28;20454;-72
2021/12/09 13:00:16;;;;;;;0.40;0.30;;;5.90;99.90;;;;;;5111668;28;20380;-72
2021/12/09 13:05:30;;;;;;;0.40;0.20;;;5.60;99.90;;;;;;5111560;28;20394;-72
2021/12/09 13:13:19;;;;;;;0.40;0.20;;;5.80;99.90;;;;;;5111521;28;20433;-73
2021/12/09 13:21:43;;;;;;;0.40;0.30;;;6.00;99.90;;;;;;5111254;28;20376;-72
2021/12/09 13:24:19;;;;;;;0.40;0.20;;;5.90;99.90;;;;;;5093193;28;20866;-72
2021/12/09 13:27:10;;;;;;;0.40;0.20;;;6.00;99.90;;;;;;5109748;28;20424;-72
2021/12/09 13:35:21;;;;;;;0.40;0.28;;;5.70;99.90;;;;;;5090992;28;20435;-73
2021/12/09 13:48:21;;;;;;;0.40;0.20;;;5.70;99.90;;;;;;5090628;28;20817;-72
2021/12/09 13:50:57;;;;;;;0.40;0.30;;;5.60;99.90;;;;;;5098917;27;20383;-74
2021/12/09 13:56:10;;;;;;;1.80;0.70;;;5.40;99.90;;;;;;5102156;28;20435;-72
2021/12/09 13:58:36;;;;;;;0.40;0.20;;;5.70;99.90;;;;;;5101445;28;20453;-72
2021/12/09 14:01:04;;;;;;;0.40;0.30;;;5.60;99.90;;;;;;5100008;28;21110;-71
2021/12/09 14:03:30;;;;;;;0.40;0.30;;;5.60;99.90;;;;;;5098816;28;20423;-72
2021/12/09 14:06:07;;;;;;;0.50;0.50;;;5.70;99.90;;;;;;5100041;28;20476;-72
2021/12/09 14:08:44;;;;;;;0.40;0.30;;;5.70;99.90;;;;;;5101292;28;20399;-72
2021/12/09 14:11:29;;;;;;;0.40;0.20;;;5.60;99.90;;;;;;5099432;27;20392;-73
2021/12/09 14:14:11;;;;;;;0.40;0.20;;;5.60;99.90;;;;;;5098562;28;20396;-71
2021/12/09 14:16:50;;;;;;;0.40;0.30;;;5.30;99.90;;;;;;5100673;28;21007;-71